createdAt,value
2023-05-13T00:22:20.834Z,6.65
2023-05-13T00:52:23.830Z,7.22
2023-05-13T01:22:26.750Z,8.35
2023-05-13T01:52:29.816Z,7.47
2023-05-13T02:22:33.124Z,8.52
2023-05-13T02:52:36.259Z,7.82
2023-05-13T03:22:39.244Z,7.55
2023-05-13T03:52:42.849Z,6.65
2023-05-13T04:22:48.642Z,7.93
2023-05-13T04:52:51.634Z,6.53
2023-05-13T05:22:54.619Z,5.97
2023-05-13T05:52:57.539Z,5.93
2023-05-13T06:23:01.433Z,7.95
2023-05-13T06:53:04.858Z,7.60
2023-05-13T07:23:11.348Z,6.78
2023-05-13T07:53:15.725Z,5.93
2023-05-13T08:23:19.610Z,7.32
2023-05-13T08:53:22.824Z,4.55
2023-05-13T09:23:26.928Z,4.05
2023-05-13T09:53:31.339Z,4.53
2023-05-13T10:23:34.619Z,4.00
2023-05-13T10:53:44.221Z,4.60
2023-05-13T11:23:56.926Z,4.35
2023-05-13T11:54:05.962Z,5.07
2023-05-13T12:24:19.295Z,4.32
2023-05-13T12:54:22.284Z,5.03
2023-05-13T13:24:25.339Z,3.55
2023-05-13T13:54:28.407Z,6.28
2023-05-13T14:24:31.468Z,3.72
2023-05-13T14:54:35.021Z,4.40
2023-05-13T15:24:38.099Z,3.88
2023-05-13T15:54:41.160Z,3.78
2023-05-13T16:24:44.095Z,2.95
2023-05-13T16:54:47.091Z,3.70
2023-05-13T17:24:50.217Z,3.38
2023-05-13T17:54:54.400Z,4.25
2023-05-13T18:24:57.335Z,5.13
2023-05-13T18:55:03.200Z,6.10
2023-05-13T19:25:06.761Z,6.65
2023-05-13T19:55:10.339Z,7.97
2023-05-13T20:25:13.478Z,10.90
2023-05-13T20:55:16.475Z,7.03
2023-05-13T21:25:19.425Z,6.22
2023-05-13T21:55:22.851Z,6.25
2023-05-13T22:25:25.824Z,6.15
2023-05-13T22:55:28.760Z,6.20
2023-05-13T23:25:31.818Z,7.32
2023-05-13T23:55:34.891Z,6.93
